Time;durP1;ratioP1;P1;durP2;ratioP2;P2;SDS_P1;SDS_P2;PMS_P1;PMS_P2;Temp;Humidity;BMP_temperature;BMP_pressure;BME280_temperature;BME280_humidity;BME280_pressure;Samples;Min_cycle;Max_cycle;Signal;HPM_P1;HPM_P2
2022/06/30 00:00:51;;;;;;;4.80;3.28;;;19.90;99.90;;;;;;5032624;28;20178;-69
2022/06/30 00:03:17;;;;;;;3.45;2.80;;;19.90;99.90;;;;;;5032066;28;20301;-69
2022/06/30 00:05:43;;;;;;;6.63;3.20;;;19.90;99.90;;;;;;5032271;28;20182;-69
2022/06/30 00:08:08;;;;;;;4.95;2.92;;;19.90;99.90;;;;;;5014930;28;20186;-69
2022/06/30 00:10:34;;;;;;;4.60;2.80;;;19.90;99.90;;;;;;5032134;28;20190;-69
2022/06/30 00:13:00;;;;;;;6.80;3.50;;;19.90;99.90;;;;;;5032076;28;20613;-69
2022/06/30 00:15:26;;;;;;;4.32;3.40;;;19.80;99.90;;;;;;5031813;28;20174;-70
2022/06/30 00:17:51;;;;;;;6.22;3.67;;;19.80;99.90;;;;;;5022334;28;20181;-70
2022/06/30 00:20:19;;;;;;;8.20;3.17;;;19.80;99.90;;;;;;5017523;28;20198;-70
2022/06/30 00:22:45;;;;;;;4.75;3.53;;;19.70;99.90;;;;;;5017551;28;20213;-70
2022/06/30 00:25:13;;;;;;;4.40;3.15;;;19.70;99.90;;;;;;5032032;28;20197;-70
2022/06/30 00:27:39;;;;;;;6.35;3.33;;;19.70;99.90;;;;;;5013944;28;20185;-70
2022/06/30 00:30:05;;;;;;;5.18;3.63;;;19.60;99.90;;;;;;5031756;28;20170;-70
2022/06/30 00:32:30;;;;;;;4.70;3.35;;;19.70;99.90;;;;;;5032048;28;20181;-70
2022/06/30 00:34:56;;;;;;;6.13;3.30;;;19.60;99.90;;;;;;5014462;28;20186;-70
2022/06/30 00:37:21;;;;;;;4.88;3.40;;;19.60;99.90;;;;;;5031815;28;20236;-70
2022/06/30 00:39:47;;;;;;;4.28;3.05;;;19.60;99.90;;;;;;5031227;28;20312;-70
2022/06/30 00:42:12;;;;;;;3.72;3.20;;;19.60;99.90;;;;;;5031719;28;20331;-70
2022/06/30 00:44:38;;;;;;;5.38;3.13;;;19.60;99.90;;;;;;5031049;28;20193;-70
2022/06/30 00:47:05;;;;;;;7.32;3.60;;;19.50;99.90;;;;;;5031526;28;20641;-70
2022/06/30 00:49:31;;;;;;;3.30;2.90;;;19.50;99.90;;;;;;5031323;28;20247;-70
2022/06/30 00:51:56;;;;;;;4.38;2.97;;;19.50;99.90;;;;;;5031980;28;20657;-70
2022/06/30 00:54:24;;;;;;;4.85;3.35;;;19.40;99.90;;;;;;5031183;28;20232;-70
2022/06/30 00:56:52;;;;;;;4.30;2.95;;;19.40;99.90;;;;;;5012253;28;20230;-70
2022/06/30 00:59:20;;;;;;;4.68;2.95;;;19.40;99.90;;;;;;5012109;28;20183;-70
2022/06/30 01:01:46;;;;;;;6.60;3.13;;;19.40;99.90;;;;;;5028823;28;20213;-70
2022/06/30 01:04:13;;;;;;;3.35;3.03;;;19.40;99.90;;;;;;5031396;28;20233;-70
2022/06/30 01:06:44;;;;;;;5.07;3.20;;;19.30;99.90;;;;;;5031268;28;20188;-70
2022/06/30 01:09:10;;;;;;;7.47;3.50;;;19.30;99.90;;;;;;5031374;28;20182;-70
2022/06/30 01:14:20;;;;;;;5.00;3.10;;;19.30;99.90;;;;;;5031714;28;20699;-70
2022/06/30 01:16:46;;;;;;;4.13;2.80;;;19.30;99.90;;;;;;5031256;28;20178;-70
2022/06/30 01:19:14;;;;;;;4.35;2.90;;;19.20;99.90;;;;;;5013635;28;20178;-70
2022/06/30 01:21:40;;;;;;;5.25;2.80;;;19.20;99.90;;;;;;5031279;28;20186;-70
2022/06/30 01:24:06;;;;;;;3.03;2.70;;;19.20;99.90;;;;;;5013647;28;20222;-70
2022/06/30 01:26:31;;;;;;;4.50;2.83;;;19.20;99.90;;;;;;5031320;28;20181;-70
2022/06/30 01:28:57;;;;;;;3.60;2.78;;;19.10;99.90;;;;;;5013128;28;20181;-70
2022/06/30 01:31:23;;;;;;;3.53;2.80;;;19.20;99.90;;;;;;5031482;28;20213;-70
2022/06/30 01:33:50;;;;;;;5.05;3.03;;;19.20;99.90;;;;;;5031190;28;20193;-70
2022/06/30 01:36:16;;;;;;;4.95;2.88;;;19.10;99.90;;;;;;5031611;28;20661;-70
2022/06/30 01:38:41;;;;;;;4.57;2.80;;;19.10;99.90;;;;;;5030902;28;20257;-70
2022/06/30 01:41:07;;;;;;;4.38;3.17;;;19.20;99.90;;;;;;5031592;28;20182;-70
2022/06/30 01:43:33;;;;;;;5.57;2.70;;;19.10;99.90;;;;;;5031140;28;20241;-70
2022/06/30 01:45:58;;;;;;;5.55;3.10;;;19.10;99.90;;;;;;5031464;28;20630;-70
2022/06/30 01:48:24;;;;;;;4.70;3.05;;;19.00;99.90;;;;;;5013140;28;20178;-71
2022/06/30 01:50:50;;;;;;;3.53;3.03;;;18.90;99.90;;;;;;5031012;28;20189;-70
2022/06/30 01:53:15;;;;;;;3.95;2.92;;;18.90;99.90;;;;;;5030942;28;20544;-70
2022/06/30 01:55:41;;;;;;;3.58;3.00;;;18.90;99.90;;;;;;5032482;28;20633;-70
2022/06/30 01:58:06;;;;;;;3.05;2.80;;;18.80;99.90;;;;;;5034781;28;20191;-70
2022/06/30 02:00:32;;;;;;;3.20;2.80;;;18.80;99.90;;;;;;5034337;28;20180;-70
2022/06/30 02:02:58;;;;;;;3.05;2.75;;;18.80;99.90;;;;;;5034241;28;20220;-70
2022/06/30 02:05:25;;;;;;;4.85;2.75;;;18.80;99.90;;;;;;5034396;28;20253;-71
2022/06/30 02:07:50;;;;;;;5.00;3.00;;;18.80;99.90;;;;;;5034450;28;20266;-71
2022/06/30 02:10:19;;;;;;;5.45;2.60;;;18.70;99.90;;;;;;5034477;28;20249;-70
2022/06/30 02:12:46;;;;;;;4.55;3.00;;;18.70;99.90;;;;;;5034401;28;20637;-70
2022/06/30 02:15:17;;;;;;;3.28;2.80;;;18.70;99.90;;;;;;5034539;28;20174;-71
2022/06/30 02:17:44;;;;;;;3.58;2.97;;;18.60;99.90;;;;;;5034276;28;20276;-70
2022/06/30 02:20:11;;;;;;;5.05;2.90;;;18.60;99.90;;;;;;5034425;28;20178;-70
2022/06/30 02:22:38;;;;;;;2.80;2.60;;;18.60;99.90;;;;;;5034175;28;20743;-70
2022/06/30 02:25:05;;;;;;;3.33;2.72;;;18.60;99.90;;;;;;5034084;28;20312;-70
2022/06/30 02:27:31;;;;;;;6.28;3.20;;;18.60;99.90;;;;;;5033841;28;20269;-70
2022/06/30 02:29:56;;;;;;;4.88;2.70;;;18.60;99.90;;;;;;5032199;28;20174;-70
2022/06/30 02:32:22;;;;;;;3.15;2.85;;;18.60;99.90;;;;;;5034418;28;20174;-70
2022/06/30 02:34:48;;;;;;;3.60;2.88;;;18.50;99.90;;;;;;5016201;28;20192;-70
2022/06/30 02:37:14;;;;;;;5.00;2.88;;;18.50;99.90;;;;;;5033812;28;20186;-70
2022/06/30 02:39:40;;;;;;;6.60;3.30;;;18.50;99.90;;;;;;5033685;28;20226;-70
2022/06/30 02:42:06;;;;;;;3.47;2.97;;;18.50;99.90;;;;;;5033347;28;20178;-70
2022/06/30 02:44:31;;;;;;;3.95;2.88;;;18.40;99.90;;;;;;5033820;28;20213;-70
2022/06/30 02:46:57;;;;;;;3.15;2.88;;;18.40;99.90;;;;;;5033550;28;20174;-70
2022/06/30 02:49:22;;;;;;;5.00;3.10;;;18.40;99.90;;;;;;5015664;28;20186;-70
2022/06/30 02:51:49;;;;;;;7.68;3.42;;;18.40;99.90;;;;;;5033733;28;20625;-70
2022/06/30 02:54:15;;;;;;;6.28;3.28;;;18.30;99.90;;;;;;5033610;28;20621;-71
2022/06/30 02:56:41;;;;;;;4.40;2.83;;;18.30;99.90;;;;;;5033478;28;20186;-70
2022/06/30 02:59:07;;;;;;;3.95;2.60;;;18.30;99.90;;;;;;5033085;28;20232;-71
2022/06/30 03:01:33;;;;;;;4.47;2.88;;;18.20;99.90;;;;;;5033165;28;20629;-70
2022/06/30 03:04:01;;;;;;;4.43;3.20;;;18.20;99.90;;;;;;5033238;28;20217;-71
2022/06/30 03:06:28;;;;;;;5.28;3.42;;;18.20;99.90;;;;;;5032538;28;20178;-70
2022/06/30 03:08:55;;;;;;;5.20;3.13;;;18.20;99.90;;;;;;5033238;28;20182;-70
2022/06/30 03:11:21;;;;;;;3.28;2.80;;;18.10;99.90;;;;;;5033527;28;20182;-70
2022/06/30 03:13:46;;;;;;;3.47;3.17;;;18.20;99.90;;;;;;5033068;28;20178;-70
2022/06/30 03:16:12;;;;;;;7.65;3.47;;;18.10;99.90;;;;;;5033227;28;20210;-70
2022/06/30 03:18:39;;;;;;;4.68;2.80;;;18.20;99.90;;;;;;5032898;28;20177;-71
2022/06/30 03:21:04;;;;;;;7.80;3.45;;;18.10;99.90;;;;;;5033197;28;20707;-71
2022/06/30 03:23:30;;;;;;;3.63;2.88;;;18.10;99.90;;;;;;5032463;28;20218;-71
2022/06/30 03:25:55;;;;;;;3.72;3.00;;;18.10;99.90;;;;;;5032638;28;20660;-71
2022/06/30 03:28:21;;;;;;;7.00;3.47;;;18.00;99.90;;;;;;5032833;28;20193;-70
2022/06/30 03:30:47;;;;;;;4.68;3.17;;;18.00;99.90;;;;;;5032693;28;20174;-71
2022/06/30 03:33:14;;;;;;;7.65;3.53;;;18.00;99.90;;;;;;5032845;28;20210;-71
2022/06/30 03:35:40;;;;;;;7.35;3.20;;;18.00;99.90;;;;;;5032808;28;20268;-70
2022/06/30 03:38:06;;;;;;;7.15;3.90;;;18.00;99.90;;;;;;5032314;28;20768;-70
2022/06/30 03:40:32;;;;;;;9.63;5.38;;;18.00;99.90;;;;;;5032586;28;20217;-71
2022/06/30 03:42:57;;;;;;;9.38;4.00;;;18.00;99.90;;;;;;5032284;28;20251;-71
2022/06/30 03:45:23;;;;;;;5.45;3.25;;;18.00;99.90;;;;;;5014290;28;20189;-72
2022/06/30 03:47:48;;;;;;;3.90;3.10;;;18.00;99.90;;;;;;5031222;28;20186;-72
2022/06/30 03:50:14;;;;;;;4.00;3.45;;;18.00;99.90;;;;;;5032252;28;20597;-68
2022/06/30 03:52:39;;;;;;;3.80;2.85;;;18.00;99.90;;;;;;5032332;28;20248;-71
2022/06/30 03:55:05;;;;;;;4.25;3.63;;;18.00;99.90;;;;;;5031061;28;20201;-67
2022/06/30 03:57:31;;;;;;;6.13;3.30;;;17.90;99.90;;;;;;5032405;28;20256;-68
2022/06/30 03:59:56;;;;;;;3.78;2.97;;;18.00;99.90;;;;;;5031868;28;20209;-70
2022/06/30 04:02:22;;;;;;;5.18;3.30;;;18.00;99.90;;;;;;5032116;28;20194;-68
2022/06/30 04:04:47;;;;;;;6.07;3.58;;;18.00;99.90;;;;;;5032302;28;20263;-68
2022/06/30 04:07:13;;;;;;;5.40;3.50;;;18.00;99.90;;;;;;5032029;28;20265;-74
2022/06/30 04:09:38;;;;;;;5.45;3.30;;;18.10;99.90;;;;;;5031999;28;20217;-65
2022/06/30 04:12:04;;;;;;;4.72;3.67;;;18.10;99.90;;;;;;5032165;28;20186;-70
2022/06/30 04:14:30;;;;;;;7.88;3.90;;;18.30;99.90;;;;;;5031829;28;20194;-71
2022/06/30 04:16:55;;;;;;;8.48;4.75;;;18.40;99.90;;;;;;5028538;28;20228;-71
2022/06/30 04:19:21;;;;;;;5.05;3.67;;;18.50;99.90;;;;;;5011482;28;20178;-71
2022/06/30 04:21:47;;;;;;;7.13;4.30;;;18.70;99.90;;;;;;5021461;28;20265;-71
2022/06/30 04:24:12;;;;;;;5.75;3.40;;;18.90;99.90;;;;;;5032034;28;20305;-71
2022/06/30 04:26:38;;;;;;;4.65;3.88;;;19.20;99.90;;;;;;5031983;28;20204;-71
2022/06/30 04:29:03;;;;;;;5.50;3.20;;;19.50;99.90;;;;;;5032037;28;20269;-70
2022/06/30 04:34:13;;;;;;;4.40;3.35;;;20.20;99.90;;;;;;5032216;28;20244;-71
2022/06/30 04:36:39;;;;;;;4.18;3.30;;;20.60;99.90;;;;;;5032019;28;20633;-71
2022/06/30 04:39:04;;;;;;;8.23;3.75;;;21.00;99.90;;;;;;5031749;28;20693;-71
2022/06/30 04:41:30;;;;;;;3.15;2.85;;;21.40;99.90;;;;;;5032037;28;20698;-72
2022/06/30 04:43:57;;;;;;;4.43;3.13;;;21.80;99.90;;;;;;5032125;28;20225;-71
2022/06/30 04:46:23;;;;;;;3.88;2.70;;;22.10;99.90;;;;;;5031890;28;20202;-71
2022/06/30 04:48:49;;;;;;;6.15;3.25;;;22.50;99.90;;;;;;5032106;28;20182;-71
2022/06/30 04:51:16;;;;;;;3.50;3.10;;;22.90;99.90;;;;;;5031880;28;20642;-71
2022/06/30 04:53:42;;;;;;;6.60;3.53;;;23.30;99.90;;;;;;5029887;28;20312;-71
2022/06/30 04:56:08;;;;;;;5.65;3.40;;;23.70;99.90;;;;;;5030361;28;20642;-71
2022/06/30 04:58:34;;;;;;;5.78;3.35;;;24.20;99.90;;;;;;5030366;28;20186;-72
2022/06/30 05:01:01;;;;;;;6.70;3.20;;;24.60;99.90;;;;;;5031649;28;20248;-71
2022/06/30 05:03:27;;;;;;;5.22;3.30;;;24.90;99.90;;;;;;5031369;28;20205;-71
2022/06/30 05:05:53;;;;;;;5.32;3.28;;;25.30;99.90;;;;;;5013721;28;20185;-71
2022/06/30 05:08:19;;;;;;;5.13;3.53;;;25.70;99.90;;;;;;5031680;28;20174;-71
2022/06/30 05:10:44;;;;;;;5.63;3.42;;;26.10;99.90;;;;;;5031605;28;20170;-71
2022/06/30 05:13:10;;;;;;;5.30;3.40;;;26.50;99.40;;;;;;5031580;28;20566;-71
2022/06/30 05:15:36;;;;;;;4.45;3.28;;;26.80;98.40;;;;;;5031584;28;20204;-71
2022/06/30 05:18:01;;;;;;;4.97;3.47;;;27.10;97.60;;;;;;5031484;28;20182;-71
2022/06/30 05:20:27;;;;;;;4.97;3.08;;;27.30;97.10;;;;;;5031510;28;20274;-71
2022/06/30 05:22:53;;;;;;;6.05;3.28;;;27.40;96.40;;;;;;5031396;28;20233;-71
2022/06/30 05:28:03;;;;;;;4.65;2.97;;;28.00;95.20;;;;;;5031572;28;20205;-71
2022/06/30 05:30:28;;;;;;;3.35;2.92;;;28.40;94.20;;;;;;5033325;28;20585;-72
2022/06/30 05:32:54;;;;;;;4.03;2.60;;;28.80;93.40;;;;;;5035358;28;20182;-73
2022/06/30 05:35:20;;;;;;;6.18;2.75;;;29.10;92.50;;;;;;5035244;28;20182;-73
2022/06/30 05:37:45;;;;;;;4.53;2.80;;;29.50;91.70;;;;;;5034647;28;20594;-72
2022/06/30 05:40:11;;;;;;;5.53;2.88;;;29.90;90.70;;;;;;5017582;28;20189;-72
2022/06/30 05:42:37;;;;;;;3.50;2.55;;;30.40;89.40;;;;;;5034892;28;20278;-73
2022/06/30 05:45:03;;;;;;;4.13;2.50;;;30.70;87.30;;;;;;5034949;28;20171;-73
2022/06/30 05:47:29;;;;;;;3.55;2.38;;;31.10;84.50;;;;;;5034903;28;20171;-73
2022/06/30 05:49:55;;;;;;;4.90;2.67;;;31.50;81.90;;;;;;5034874;28;20637;-73
2022/06/30 05:52:21;;;;;;;5.03;2.55;;;31.70;79.90;;;;;;5034977;28;20174;-73
2022/06/30 05:54:47;;;;;;;7.38;2.80;;;31.90;79.60;;;;;;5034772;28;20223;-72
2022/06/30 05:57:12;;;;;;;3.60;2.58;;;32.30;80.00;;;;;;5034124;28;20174;-73
2022/06/30 05:59:38;;;;;;;6.22;2.70;;;32.70;79.30;;;;;;5034549;28;20185;-72
2022/06/30 06:02:04;;;;;;;4.40;2.40;;;33.00;77.80;;;;;;5034470;28;20647;-73
2022/06/30 06:04:29;;;;;;;5.10;2.25;;;33.30;75.50;;;;;;5035054;28;20186;-73
2022/06/30 06:06:55;;;;;;;2.85;2.30;;;33.30;73.40;;;;;;5034734;28;20181;-72
2022/06/30 06:09:21;;;;;;;4.15;2.47;;;33.30;72.60;;;;;;5034906;28;20194;-73
2022/06/30 06:11:46;;;;;;;2.95;2.20;;;33.50;73.00;;;;;;5034815;28;20185;-73
2022/06/30 06:14:12;;;;;;;3.47;2.25;;;33.90;72.60;;;;;;5034822;28;20177;-72
2022/06/30 06:16:38;;;;;;;5.70;2.20;;;34.20;71.60;;;;;;5034721;28;20190;-72
2022/06/30 06:19:04;;;;;;;7.57;2.25;;;34.60;70.70;;;;;;5034689;28;20251;-73
2022/06/30 06:21:29;;;;;;;3.22;2.67;;;34.80;69.00;;;;;;5034347;28;20252;-73
2022/06/30 06:23:55;;;;;;;3.55;2.20;;;35.10;67.10;;;;;;5034641;28;20603;-73
2022/06/30 06:26:21;;;;;;;3.78;2.03;;;35.40;65.00;;;;;;5034664;28;20331;-73
2022/06/30 06:31:31;;;;;;;3.42;2.15;;;35.70;60.70;;;;;;5034654;28;20220;-73
2022/06/30 06:33:56;;;;;;;5.15;2.00;;;36.00;60.50;;;;;;5034637;28;20582;-72
2022/06/30 06:36:22;;;;;;;2.72;2.28;;;36.30;60.30;;;;;;5034267;28;20172;-73
2022/06/30 06:38:48;;;;;;;3.40;2.05;;;36.70;59.80;;;;;;5034275;28;20696;-73
2022/06/30 06:41:15;;;;;;;2.65;2.20;;;37.10;58.80;;;;;;5033348;28;20231;-72
2022/06/30 06:43:41;;;;;;;3.20;2.40;;;37.60;57.90;;;;;;5034224;28;20213;-73
2022/06/30 06:46:06;;;;;;;2.50;2.20;;;38.00;56.80;;;;;;5034304;28;20180;-73
2022/06/30 06:48:32;;;;;;;4.88;2.40;;;38.20;56.30;;;;;;5016350;28;20178;-73
2022/06/30 06:50:58;;;;;;;4.80;2.50;;;38.30;55.00;;;;;;5034289;28;20527;-73
2022/06/30 06:53:23;;;;;;;3.55;2.38;;;38.40;54.80;;;;;;5033828;28;20511;-73
2022/06/30 06:55:49;;;;;;;2.90;2.28;;;38.60;54.50;;;;;;5034004;28;20178;-73
2022/06/30 06:58:14;;;;;;;2.75;2.20;;;38.70;54.30;;;;;;5034016;28;20621;-73
2022/06/30 07:00:40;;;;;;;5.40;2.50;;;39.10;53.90;;;;;;5033793;28;20185;-73
2022/06/30 07:03:06;;;;;;;3.88;2.30;;;39.30;53.50;;;;;;5033663;28;20221;-73
2022/06/30 07:05:31;;;;;;;3.35;2.40;;;39.40;53.00;;;;;;5033819;28;20786;-73
2022/06/30 07:07:59;;;;;;;4.53;2.60;;;39.40;52.50;;;;;;5033843;28;20239;-73
2022/06/30 07:10:25;;;;;;;5.60;2.40;;;39.60;52.80;;;;;;5033548;28;20169;-73
2022/06/30 07:12:52;;;;;;;3.65;2.50;;;39.80;52.20;;;;;;5033796;28;20178;-72
2022/06/30 07:15:17;;;;;;;3.85;2.47;;;40.00;51.40;;;;;;5033650;28;20181;-72
2022/06/30 07:17:43;;;;;;;5.80;2.58;;;39.90;51.10;;;;;;5033511;28;20247;-72
2022/06/30 07:20:09;;;;;;;3.92;2.25;;;39.60;51.70;;;;;;5033605;28;20212;-73
2022/06/30 07:22:35;;;;;;;5.32;2.42;;;39.30;51.80;;;;;;5015653;28;20623;-72
2022/06/30 07:25:01;;;;;;;3.78;2.38;;;39.30;51.70;;;;;;5033664;28;20228;-73
2022/06/30 07:27:27;;;;;;;3.08;2.63;;;39.60;52.00;;;;;;5033409;28;20174;-72
2022/06/30 07:29:53;;;;;;;4.50;2.40;;;40.00;51.40;;;;;;5033292;28;20208;-72
2022/06/30 07:32:18;;;;;;;5.88;2.30;;;40.30;50.80;;;;;;5033380;28;20173;-72
2022/06/30 07:34:44;;;;;;;2.88;2.47;;;40.20;49.50;;;;;;5033125;28;20201;-73
2022/06/30 07:37:09;;;;;;;2.80;2.47;;;40.20;49.80;;;;;;5033249;28;20208;-73
2022/06/30 07:39:35;;;;;;;5.82;2.20;;;40.30;49.50;;;;;;5032911;28;20696;-73
2022/06/30 07:42:01;;;;;;;4.95;2.40;;;40.40;49.50;;;;;;5033214;28;20177;-73
2022/06/30 07:44:27;;;;;;;2.20;1.85;;;40.40;50.40;;;;;;5032777;28;20581;-73
2022/06/30 07:46:52;;;;;;;2.08;1.88;;;40.40;49.00;;;;;;5033155;28;20647;-73
2022/06/30 07:49:18;;;;;;;3.80;2.15;;;40.40;49.30;;;;;;5032955;28;20541;-73
2022/06/30 07:51:43;;;;;;;4.07;2.10;;;40.30;48.80;;;;;;5032794;28;20205;-73
2022/06/30 07:54:09;;;;;;;4.05;2.20;;;40.30;47.10;;;;;;5032593;28;20173;-73
2022/06/30 07:56:34;;;;;;;3.42;2.25;;;40.10;47.00;;;;;;5015128;28;20228;-73
2022/06/30 07:59:01;;;;;;;2.03;1.80;;;40.00;48.00;;;;;;5032906;28;20178;-73
2022/06/30 08:01:26;;;;;;;3.13;1.75;;;39.90;46.30;;;;;;5032715;28;20181;-73
2022/06/30 08:03:52;;;;;;;2.83;1.92;;;39.80;46.20;;;;;;5032678;28;20656;-73
2022/06/30 08:06:18;;;;;;;3.65;1.70;;;39.80;46.30;;;;;;5032622;28;20206;-73
2022/06/30 08:08:44;;;;;;;5.35;2.03;;;39.80;46.20;;;;;;5032781;28;20185;-73
2022/06/30 08:11:10;;;;;;;4.15;1.83;;;40.00;45.40;;;;;;5032607;28;20699;-73
2022/06/30 08:13:36;;;;;;;3.25;1.95;;;40.20;46.40;;;;;;5032547;28;20189;-73
2022/06/30 08:16:03;;;;;;;3.33;1.90;;;40.30;45.30;;;;;;5032482;28;20272;-73
2022/06/30 08:18:29;;;;;;;2.55;1.80;;;40.50;44.50;;;;;;5032480;28;20224;-73
2022/06/30 08:20:54;;;;;;;2.13;1.92;;;40.60;45.70;;;;;;5032468;28;20200;-73
2022/06/30 08:23:20;;;;;;;2.60;2.38;;;40.60;45.30;;;;;;5032345;28;20217;-73
2022/06/30 08:25:45;;;;;;;3.88;2.10;;;40.50;44.10;;;;;;5032249;28;20174;-73
2022/06/30 08:28:11;;;;;;;3.75;2.30;;;40.40;45.60;;;;;;5032429;28;20200;-73
2022/06/30 08:30:37;;;;;;;2.25;2.05;;;40.30;45.30;;;;;;5032380;28;20331;-73
2022/06/30 08:33:02;;;;;;;4.93;2.50;;;40.30;45.40;;;;;;5032199;28;20181;-73
2022/06/30 08:35:28;;;;;;;3.05;2.25;;;40.30;45.70;;;;;;5032163;28;20636;-73
2022/06/30 08:37:54;;;;;;;4.95;2.20;;;40.30;45.80;;;;;;5032074;28;20221;-73
2022/06/30 08:43:08;;;;;;;3.67;2.20;;;40.10;45.60;;;;;;5032074;28;20219;-73
2022/06/30 08:45:35;;;;;;;3.40;2.10;;;40.10;46.30;;;;;;5032117;28;20944;-72
2022/06/30 08:48:00;;;;;;;2.58;2.38;;;39.80;45.20;;;;;;5032204;28;20181;-72
2022/06/30 08:50:26;;;;;;;2.92;2.72;;;39.60;47.30;;;;;;5032033;28;20706;-73
2022/06/30 08:52:54;;;;;;;2.40;2.20;;;39.60;47.30;;;;;;5032078;28;20461;-72
2022/06/30 08:55:25;;;;;;;5.07;2.30;;;39.50;45.80;;;;;;5031930;28;20193;-73
2022/06/30 08:58:03;;;;;;;2.83;2.17;;;39.20;46.00;;;;;;5031881;28;20177;-73
2022/06/30 09:00:29;;;;;;;4.00;2.25;;;38.70;46.30;;;;;;5031814;28;20177;-72
2022/06/30 09:02:55;;;;;;;3.13;2.13;;;38.50;47.30;;;;;;5031900;28;20221;-72
2022/06/30 09:05:21;;;;;;;4.18;2.25;;;38.10;47.40;;;;;;5033615;28;20496;-72
2022/06/30 09:07:46;;;;;;;2.50;2.30;;;37.60;47.90;;;;;;5036012;28;20686;-72
2022/06/30 09:10:12;;;;;;;2.67;2.45;;;37.20;48.20;;;;;;5035891;28;20176;-72
2022/06/30 09:12:38;;;;;;;2.67;2.47;;;37.10;49.70;;;;;;5035848;28;20184;-72
2022/06/30 09:15:04;;;;;;;3.95;2.38;;;37.30;50.00;;;;;;5035892;28;20180;-72
2022/06/30 09:17:30;;;;;;;4.72;2.38;;;37.30;49.80;;;;;;5035946;28;20174;-72
2022/06/30 09:20:04;;;;;;;5.03;2.58;;;37.50;49.70;;;;;;5035848;28;20177;-72
2022/06/30 09:22:34;;;;;;;3.88;2.45;;;37.60;49.50;;;;;;5035680;28;20635;-73
2022/06/30 09:25:20;;;;;;;3.47;2.35;;;37.70;49.50;;;;;;5035722;28;20657;-72
2022/06/30 09:27:47;;;;;;;6.18;2.58;;;37.90;49.30;;;;;;5035556;28;20174;-72
2022/06/30 09:30:20;;;;;;;2.67;2.42;;;38.10;48.30;;;;;;5018017;28;20208;-72
2022/06/30 09:32:50;;;;;;;2.50;2.22;;;38.30;49.30;;;;;;5035606;28;20204;-72
2022/06/30 09:35:18;;;;;;;4.13;2.45;;;38.00;47.20;;;;;;5017683;28;20170;-72
2022/06/30 09:37:43;;;;;;;3.35;2.97;;;37.40;47.30;;;;;;5035145;28;20240;-72
2022/06/30 09:40:10;;;;;;;3.00;2.70;;;36.90;48.10;;;;;;5035469;28;20664;-72
2022/06/30 09:42:39;;;;;;;3.10;2.80;;;36.60;49.00;;;;;;5035203;28;20791;-71
2022/06/30 09:45:07;;;;;;;5.10;2.60;;;36.60;50.50;;;;;;5035126;28;20250;-72
2022/06/30 09:47:33;;;;;;;3.60;2.47;;;36.60;50.70;;;;;;5035140;28;20177;-71
2022/06/30 09:50:05;;;;;;;3.45;2.75;;;36.60;50.80;;;;;;5035261;28;20181;-72
2022/06/30 09:52:31;;;;;;;3.97;2.35;;;36.90;51.00;;;;;;5035077;28;20186;-72
2022/06/30 09:55:04;;;;;;;2.72;2.22;;;37.10;49.40;;;;;;5035194;28;20247;-72
2022/06/30 09:57:32;;;;;;;4.65;2.30;;;37.20;48.80;;;;;;5035120;28;20257;-72
2022/06/30 10:00:08;;;;;;;4.93;2.25;;;37.30;47.50;;;;;;5035018;28;20236;-72
2022/06/30 10:02:39;;;;;;;2.80;2.60;;;37.60;46.80;;;;;;5034879;28;20605;-72
2022/06/30 10:05:06;;;;;;;4.65;2.88;;;37.60;48.00;;;;;;5034841;28;20189;-71
2022/06/30 10:07:34;;;;;;;3.33;2.50;;;37.80;48.80;;;;;;5034920;28;20257;-72
2022/06/30 10:10:06;;;;;;;4.07;2.53;;;37.90;47.20;;;;;;5034839;28;20181;-72
2022/06/30 10:12:32;;;;;;;3.50;2.00;;;37.90;47.40;;;;;;5034754;28;20173;-71
2022/06/30 10:14:58;;;;;;;2.33;2.03;;;37.50;45.60;;;;;;5034824;28;20216;-72
2022/06/30 10:17:48;;;;;;;3.83;2.40;;;37.60;46.30;;;;;;5034469;28;20214;-72
2022/06/30 10:20:15;;;;;;;4.88;2.38;;;37.80;47.80;;;;;;5024766;28;20196;-71
2022/06/30 10:22:41;;;;;;;2.58;2.08;;;37.50;45.20;;;;;;5034631;28;20287;-71
2022/06/30 10:25:06;;;;;;;3.05;2.13;;;37.30;45.20;;;;;;5034461;28;20640;-72
2022/06/30 10:27:32;;;;;;;2.65;2.30;;;37.40;45.70;;;;;;5034419;28;20177;-72
2022/06/30 10:30:03;;;;;;;3.08;2.13;;;37.40;47.10;;;;;;5034567;28;20181;-72
2022/06/30 10:32:53;;;;;;;5.43;2.40;;;37.50;47.10;;;;;;5034417;28;20231;-71
2022/06/30 10:35:31;;;;;;;2.78;2.25;;;37.60;46.80;;;;;;5034514;28;20181;-71
2022/06/30 10:38:11;;;;;;;2.72;2.50;;;37.50;47.40;;;;;;5034182;28;20364;-71
2022/06/30 10:40:48;;;;;;;3.03;2.72;;;37.40;46.90;;;;;;5034322;28;20232;-71
2022/06/30 10:43:16;;;;;;;3.78;2.50;;;37.20;47.60;;;;;;5034310;28;20638;-71
2022/06/30 10:46:06;;;;;;;4.82;2.30;;;37.20;47.50;;;;;;5034084;28;20185;-71
2022/06/30 10:48:53;;;;;;;4.05;2.40;;;36.80;46.70;;;;;;5034150;28;20178;-71
2022/06/30 10:51:19;;;;;;;2.35;2.20;;;36.50;47.00;;;;;;5034170;28;20186;-71
2022/06/30 10:53:44;;;;;;;5.53;2.45;;;36.50;47.80;;;;;;5034079;28;20192;-71
2022/06/30 10:56:10;;;;;;;5.53;2.30;;;36.70;48.60;;;;;;5034068;28;20174;-71
2022/06/30 10:58:35;;;;;;;3.30;2.20;;;36.70;46.50;;;;;;5033916;28;20191;-71
2022/06/30 11:01:05;;;;;;;2.78;2.28;;;36.70;48.50;;;;;;5033855;28;20651;-71
2022/06/30 11:03:32;;;;;;;3.25;2.47;;;36.80;47.30;;;;;;5033725;28;20565;-71
2022/06/30 11:06:01;;;;;;;2.30;2.00;;;36.80;46.60;;;;;;5033769;28;20514;-71
2022/06/30 11:08:39;;;;;;;3.70;2.22;;;36.90;48.00;;;;;;5033981;28;20530;-71
2022/06/30 11:11:22;;;;;;;2.88;2.30;;;37.00;47.00;;;;;;5033634;28;20181;-71
2022/06/30 11:13:48;;;;;;;5.00;2.30;;;37.10;47.40;;;;;;5033672;28;20613;-71
2022/06/30 11:16:15;;;;;;;2.78;2.20;;;37.10;44.80;;;;;;5033700;28;20260;-71
2022/06/30 11:18:41;;;;;;;3.72;2.05;;;37.10;44.50;;;;;;5033423;28;20224;-71
2022/06/30 11:21:07;;;;;;;5.93;2.50;;;37.20;45.30;;;;;;5033462;28;20177;-71
2022/06/30 11:23:41;;;;;;;3.80;2.30;;;37.20;46.30;;;;;;5033243;28;20271;-71
2022/06/30 11:28:54;;;;;;;5.88;2.30;;;36.80;45.80;;;;;;5032917;28;20181;-71
2022/06/30 11:31:24;;;;;;;2.60;2.05;;;36.40;46.50;;;;;;5033334;28;20177;-71
2022/06/30 11:33:55;;;;;;;4.03;2.50;;;36.30;47.70;;;;;;5033413;28;20174;-71
2022/06/30 11:36:20;;;;;;;2.40;2.20;;;36.70;48.50;;;;;;5033261;28;20181;-71
2022/06/30 11:38:56;;;;;;;3.35;2.53;;;36.60;45.30;;;;;;5032921;28;20283;-71
2022/06/30 11:44:11;;;;;;;3.30;2.17;;;36.30;49.40;;;;;;5033026;28;20219;-71
2022/06/30 11:46:50;;;;;;;3.60;2.40;;;36.60;47.00;;;;;;5032982;28;20173;-71
2022/06/30 11:49:15;;;;;;;3.80;2.30;;;36.80;46.70;;;;;;5033004;28;20555;-72
2022/06/30 11:51:42;;;;;;;5.50;2.63;;;36.90;44.90;;;;;;5032711;28;20184;-71
2022/06/30 11:54:09;;;;;;;2.47;1.95;;;37.00;45.50;;;;;;5032765;28;20605;-71
2022/06/30 11:56:52;;;;;;;3.20;2.30;;;37.10;45.00;;;;;;5032736;28;20591;-71
2022/06/30 11:59:19;;;;;;;3.58;2.50;;;36.90;44.20;;;;;;5032638;28;20211;-71
2022/06/30 12:02:03;;;;;;;3.30;2.20;;;36.70;45.60;;;;;;5032533;28;20177;-71
2022/06/30 12:04:28;;;;;;;2.90;2.15;;;36.70;47.30;;;;;;5032629;28;20620;-71
2022/06/30 12:06:54;;;;;;;3.65;2.30;;;36.80;45.80;;;;;;5032768;28;20173;-71
2022/06/30 12:09:20;;;;;;;3.33;2.30;;;37.00;46.90;;;;;;5032635;28;20177;-71
2022/06/30 12:11:46;;;;;;;2.28;2.08;;;37.30;45.70;;;;;;5032543;28;20174;-71
2022/06/30 12:14:11;;;;;;;3.97;2.22;;;37.30;45.10;;;;;;5032620;28;20260;-71
2022/06/30 12:16:37;;;;;;;3.25;2.45;;;37.30;45.90;;;;;;5032516;28;20261;-71
2022/06/30 12:19:03;;;;;;;5.75;2.17;;;37.40;45.60;;;;;;5032424;28;20272;-71
2022/06/30 12:21:29;;;;;;;2.35;2.13;;;37.40;44.60;;;;;;5032417;28;20260;-71
2022/06/30 12:23:55;;;;;;;3.25;2.40;;;37.40;43.10;;;;;;5032469;28;20744;-71
2022/06/30 12:26:21;;;;;;;4.15;2.30;;;37.40;43.30;;;;;;5032303;28;20264;-71
2022/06/30 12:28:55;;;;;;;2.60;2.20;;;37.10;44.10;;;;;;5032423;28;20186;-71
2022/06/30 12:31:28;;;;;;;4.88;2.20;;;36.60;44.70;;;;;;5032294;28;20177;-71
2022/06/30 12:33:55;;;;;;;2.63;1.92;;;36.30;44.60;;;;;;5032393;28;20180;-71
2022/06/30 12:36:23;;;;;;;4.60;2.20;;;36.30;46.10;;;;;;5032131;28;20173;-71
2022/06/30 12:38:49;;;;;;;3.05;2.10;;;36.60;42.90;;;;;;5031555;28;20695;-71
2022/06/30 12:41:15;;;;;;;2.90;2.38;;;36.70;42.60;;;;;;5031772;28;20185;-71
2022/06/30 12:43:47;;;;;;;2.50;2.28;;;36.80;44.00;;;;;;5031929;28;20216;-71
2022/06/30 12:46:13;;;;;;;4.13;2.20;;;36.80;45.10;;;;;;5032104;28;20172;-71
2022/06/30 12:48:55;;;;;;;4.75;2.45;;;36.80;44.30;;;;;;5031985;28;20564;-70
2022/06/30 12:51:35;;;;;;;4.50;2.30;;;36.80;45.80;;;;;;5031933;28;20188;-71
2022/06/30 12:54:10;;;;;;;2.17;1.98;;;36.90;44.70;;;;;;5031964;28;20177;-71
2022/06/30 12:56:37;;;;;;;2.60;2.25;;;36.80;44.30;;;;;;5031990;28;20173;-71
2022/06/30 12:59:08;;;;;;;4.05;2.38;;;36.70;44.00;;;;;;5031869;28;20541;-71
2022/06/30 13:01:45;;;;;;;2.83;2.00;;;36.90;43.90;;;;;;5031957;28;20278;-71
2022/06/30 13:04:23;;;;;;;2.42;2.20;;;36.90;42.80;;;;;;5031899;28;20236;-71
2022/06/30 13:06:51;;;;;;;3.63;2.20;;;36.70;42.40;;;;;;5032028;28;20228;-71